sensor_id;sensor_type;location;lat;lon;timestamp;temperature;humidity
8095;DHT22;4090;49.270;8.696;2022-11-04T00:00:15;13.90;99.90
8095;DHT22;4090;49.270;8.696;2022-11-04T00:02:57;13.80;99.90
8095;DHT22;4090;49.270;8.696;2022-11-04T00:05:39;13.80;99.90
8095;DHT22;4090;49.270;8.696;2022-11-04T00:08:20;13.80;99.90
8095;DHT22;4090;49.270;8.696;2022-11-04T00:11:08;13.70;99.90
8095;DHT22;4090;49.270;8.696;2022-11-04T00:14:08;13.90;99.90
8095;DHT22;4090;49.270;8.696;2022-11-04T00:16:50;13.70;99.90
8095;DHT22;4090;49.270;8.696;2022-11-04T00:19:51;13.60;99.90
8095;DHT22;4090;49.270;8.696;2022-11-04T00:22:51;13.70;99.90
8095;DHT22;4090;49.270;8.696;2022-11-04T00:25:51;13.80;99.90
8095;DHT22;4090;49.270;8.696;2022-11-04T00:28:52;13.90;99.90
8095;DHT22;4090;49.270;8.696;2022-11-04T00:31:33;13.70;99.90
8095;DHT22;4090;49.270;8.696;2022-11-04T00:34:44;13.50;99.90
8095;DHT22;4090;49.270;8.696;2022-11-04T00:37:26;13.50;99.90
8095;DHT22;4090;49.270;8.696;2022-11-04T00:40:10;13.60;99.90
8095;DHT22;4090;49.270;8.696;2022-11-04T00:42:52;13.60;99.90
8095;DHT22;4090;49.270;8.696;2022-11-04T00:45:35;13.50;99.90
8095;DHT22;4090;49.270;8.696;2022-11-04T00:48:17;13.60;99.90
8095;DHT22;4090;49.270;8.696;2022-11-04T00:50:59;13.60;99.90
8095;DHT22;4090;49.270;8.696;2022-11-04T00:53:41;13.60;99.90
8095;DHT22;4090;49.270;8.696;2022-11-04T00:56:23;13.60;99.90
8095;DHT22;4090;49.270;8.696;2022-11-04T00:59:05;13.80;99.90
8095;DHT22;4090;49.270;8.696;2022-11-04T01:01:48;13.70;99.90
8095;DHT22;4090;49.270;8.696;2022-11-04T01:04:30;13.60;99.90
8095;DHT22;4090;49.270;8.696;2022-11-04T01:07:12;13.40;99.90
8095;DHT22;4090;49.270;8.696;2022-11-04T01:09:54;13.40;99.90
8095;DHT22;4090;49.270;8.696;2022-11-04T01:12:36;13.50;99.90
8095;DHT22;4090;49.270;8.696;2022-11-04T01:15:17;13.70;99.90
8095;DHT22;4090;49.270;8.696;2022-11-04T01:18:01;13.80;99.90
8095;DHT22;4090;49.270;8.696;2022-11-04T01:20:42;13.60;99.90
8095;DHT22;4090;49.270;8.696;2022-11-04T01:23:24;13.50;99.90
8095;DHT22;4090;49.270;8.696;2022-11-04T01:26:07;13.60;99.90
8095;DHT22;4090;49.270;8.696;2022-11-04T01:28:50;13.50;99.90
8095;DHT22;4090;49.270;8.696;2022-11-04T01:31:32;13.70;99.90
8095;DHT22;4090;49.270;8.696;2022-11-04T01:34:16;13.70;99.90
8095;DHT22;4090;49.270;8.696;2022-11-04T01:36:57;13.40;99.90
8095;DHT22;4090;49.270;8.696;2022-11-04T01:39:39;13.60;99.90
8095;DHT22;4090;49.270;8.696;2022-11-04T01:42:22;13.20;99.90
8095;DHT22;4090;49.270;8.696;2022-11-04T01:45:07;13.30;99.90
8095;DHT22;4090;49.270;8.696;2022-11-04T01:47:58;13.20;99.90
8095;DHT22;4090;49.270;8.696;2022-11-04T01:50:42;13.20;99.90
8095;DHT22;4090;49.270;8.696;2022-11-04T01:53:26;13.20;99.90
8095;DHT22;4090;49.270;8.696;2022-11-04T01:56:11;13.30;99.90
8095;DHT22;4090;49.270;8.696;2022-11-04T01:58:57;13.30;99.90
8095;DHT22;4090;49.270;8.696;2022-11-04T02:01:41;13.50;99.90
8095;DHT22;4090;49.270;8.696;2022-11-04T02:04:23;13.50;99.90
8095;DHT22;4090;49.270;8.696;2022-11-04T02:07:11;13.40;99.90
8095;DHT22;4090;49.270;8.696;2022-11-04T02:09:53;13.40;99.90
8095;DHT22;4090;49.270;8.696;2022-11-04T02:16:19;13.40;99.90
8095;DHT22;4090;49.270;8.696;2022-11-04T02:19:16;13.50;99.90
8095;DHT22;4090;49.270;8.696;2022-11-04T02:22:16;13.70;99.90
8095;DHT22;4090;49.270;8.696;2022-11-04T02:25:24;13.70;99.90
8095;DHT22;4090;49.270;8.696;2022-11-04T02:28:40;13.70;99.90
8095;DHT22;4090;49.270;8.696;2022-11-04T02:31:31;13.70;99.90
8095;DHT22;4090;49.270;8.696;2022-11-04T02:34:22;13.80;99.90
8095;DHT22;4090;49.270;8.696;2022-11-04T02:37:13;13.70;99.90
8095;DHT22;4090;49.270;8.696;2022-11-04T02:40:06;13.50;99.90
8095;DHT22;4090;49.270;8.696;2022-11-04T02:42:53;13.40;99.90
8095;DHT22;4090;49.270;8.696;2022-11-04T02:45:39;13.40;99.90
8095;DHT22;4090;49.270;8.696;2022-11-04T02:48:26;13.60;99.90
8095;DHT22;4090;49.270;8.696;2022-11-04T02:51:15;13.60;99.90
8095;DHT22;4090;49.270;8.696;2022-11-04T02:54:03;13.70;99.90
8095;DHT22;4090;49.270;8.696;2022-11-04T02:56:49;13.60;99.90
8095;DHT22;4090;49.270;8.696;2022-11-04T02:59:35;13.50;99.90
8095;DHT22;4090;49.270;8.696;2022-11-04T03:02:19;13.60;99.90
8095;DHT22;4090;49.270;8.696;2022-11-04T03:05:05;13.60;99.90
8095;DHT22;4090;49.270;8.696;2022-11-04T03:07:50;13.50;99.90
8095;DHT22;4090;49.270;8.696;2022-11-04T03:10:36;13.60;99.90
8095;DHT22;4090;49.270;8.696;2022-11-04T03:13:21;13.50;99.90
8095;DHT22;4090;49.270;8.696;2022-11-04T03:16:11;13.50;99.90
8095;DHT22;4090;49.270;8.696;2022-11-04T03:18:58;13.60;99.90
8095;DHT22;4090;49.270;8.696;2022-11-04T03:21:47;13.60;99.90
8095;DHT22;4090;49.270;8.696;2022-11-04T03:24:30;13.60;99.90
8095;DHT22;4090;49.270;8.696;2022-11-04T03:27:19;13.40;99.90
8095;DHT22;4090;49.270;8.696;2022-11-04T03:30:05;13.50;99.90
8095;DHT22;4090;49.270;8.696;2022-11-04T03:32:53;13.50;99.90
8095;DHT22;4090;49.270;8.696;2022-11-04T03:35:39;13.50;99.90
8095;DHT22;4090;49.270;8.696;2022-11-04T03:38:23;13.60;99.90
8095;DHT22;4090;49.270;8.696;2022-11-04T03:41:08;13.50;99.90
8095;DHT22;4090;49.270;8.696;2022-11-04T03:43:53;13.60;99.90
8095;DHT22;4090;49.270;8.696;2022-11-04T03:46:34;13.50;99.90
8095;DHT22;4090;49.270;8.696;2022-11-04T03:49:17;13.50;99.90
8095;DHT22;4090;49.270;8.696;2022-11-04T03:51:59;13.50;99.90
8095;DHT22;4090;49.270;8.696;2022-11-04T03:54:43;13.50;99.90
8095;DHT22;4090;49.270;8.696;2022-11-04T03:57:36;13.50;99.90
8095;DHT22;4090;49.270;8.696;2022-11-04T04:00:21;13.50;99.90
8095;DHT22;4090;49.270;8.696;2022-11-04T04:03:06;13.50;99.90
8095;DHT22;4090;49.270;8.696;2022-11-04T04:05:52;13.40;99.90
8095;DHT22;4090;49.270;8.696;2022-11-04T04:08:39;13.40;99.90
8095;DHT22;4090;49.270;8.696;2022-11-04T04:11:29;13.40;99.90
8095;DHT22;4090;49.270;8.696;2022-11-04T04:14:20;13.40;99.90
8095;DHT22;4090;49.270;8.696;2022-11-04T04:17:20;13.40;99.90
8095;DHT22;4090;49.270;8.696;2022-11-04T04:20:08;13.40;99.90
8095;DHT22;4090;49.270;8.696;2022-11-04T04:22:53;13.40;99.90
8095;DHT22;4090;49.270;8.696;2022-11-04T04:25:36;13.40;99.90
8095;DHT22;4090;49.270;8.696;2022-11-04T04:28:45;13.20;99.90
8095;DHT22;4090;49.270;8.696;2022-11-04T04:31:29;13.20;99.90
8095;DHT22;4090;49.270;8.696;2022-11-04T04:34:30;13.20;99.90
8095;DHT22;4090;49.270;8.696;2022-11-04T04:37:17;13.10;99.90
8095;DHT22;4090;49.270;8.696;2022-11-04T04:40:00;13.10;99.90
8095;DHT22;4090;49.270;8.696;2022-11-04T04:42:59;13.10;99.90
8095;DHT22;4090;49.270;8.696;2022-11-04T04:46:00;13.10;99.90
8095;DHT22;4090;49.270;8.696;2022-11-04T04:48:43;13.00;99.90
8095;DHT22;4090;49.270;8.696;2022-11-04T04:51:24;13.10;99.90
8095;DHT22;4090;49.270;8.696;2022-11-04T04:54:06;13.00;99.90
8095;DHT22;4090;49.270;8.696;2022-11-04T04:56:48;13.00;99.90
8095;DHT22;4090;49.270;8.696;2022-11-04T04:59:30;13.00;99.90
8095;DHT22;4090;49.270;8.696;2022-11-04T05:02:13;13.00;99.90
8095;DHT22;4090;49.270;8.696;2022-11-04T05:04:55;13.00;99.90
8095;DHT22;4090;49.270;8.696;2022-11-04T05:07:39;13.00;99.90
8095;DHT22;4090;49.270;8.696;2022-11-04T05:10:21;13.10;99.90
8095;DHT22;4090;49.270;8.696;2022-11-04T05:13:02;13.00;99.90
8095;DHT22;4090;49.270;8.696;2022-11-04T05:16:03;13.00;99.90
8095;DHT22;4090;49.270;8.696;2022-11-04T05:18:47;13.00;99.90
8095;DHT22;4090;49.270;8.696;2022-11-04T05:21:28;13.00;99.90
8095;DHT22;4090;49.270;8.696;2022-11-04T05:24:10;12.90;99.90
8095;DHT22;4090;49.270;8.696;2022-11-04T05:26:52;13.00;99.90
8095;DHT22;4090;49.270;8.696;2022-11-04T05:29:34;12.90;99.90
8095;DHT22;4090;49.270;8.696;2022-11-04T05:32:16;12.90;99.90
8095;DHT22;4090;49.270;8.696;2022-11-04T05:34:59;12.90;99.90
8095;DHT22;4090;49.270;8.696;2022-11-04T05:37:41;12.90;99.90
8095;DHT22;4090;49.270;8.696;2022-11-04T05:40:24;13.00;99.90
8095;DHT22;4090;49.270;8.696;2022-11-04T05:43:06;13.00;99.90
8095;DHT22;4090;49.270;8.696;2022-11-04T05:45:48;12.90;99.90
8095;DHT22;4090;49.270;8.696;2022-11-04T05:48:30;13.00;99.90
8095;DHT22;4090;49.270;8.696;2022-11-04T05:51:14;13.10;99.90
8095;DHT22;4090;49.270;8.696;2022-11-04T05:53:56;13.10;99.90
8095;DHT22;4090;49.270;8.696;2022-11-04T05:56:37;13.10;99.90
8095;DHT22;4090;49.270;8.696;2022-11-04T05:59:19;13.00;99.90
8095;DHT22;4090;49.270;8.696;2022-11-04T06:02:02;13.10;99.90
8095;DHT22;4090;49.270;8.696;2022-11-04T06:04:44;13.00;99.90
8095;DHT22;4090;49.270;8.696;2022-11-04T06:07:27;13.00;99.90
8095;DHT22;4090;49.270;8.696;2022-11-04T06:10:09;13.10;99.90
8095;DHT22;4090;49.270;8.696;2022-11-04T06:12:51;13.00;99.90
8095;DHT22;4090;49.270;8.696;2022-11-04T06:15:33;13.10;99.90
8095;DHT22;4090;49.270;8.696;2022-11-04T06:18:15;13.00;99.90
8095;DHT22;4090;49.270;8.696;2022-11-04T06:21:19;13.00;99.90
8095;DHT22;4090;49.270;8.696;2022-11-04T06:24:03;13.10;99.90
8095;DHT22;4090;49.270;8.696;2022-11-04T06:26:45;13.00;99.90
8095;DHT22;4090;49.270;8.696;2022-11-04T06:29:27;13.00;99.90
8095;DHT22;4090;49.270;8.696;2022-11-04T06:32:10;13.00;99.90
8095;DHT22;4090;49.270;8.696;2022-11-04T06:34:52;13.00;99.90
8095;DHT22;4090;49.270;8.696;2022-11-04T06:37:34;13.00;99.90
8095;DHT22;4090;49.270;8.696;2022-11-04T06:40:18;13.00;99.90
8095;DHT22;4090;49.270;8.696;2022-11-04T06:43:00;13.00;99.90
8095;DHT22;4090;49.270;8.696;2022-11-04T06:45:42;13.00;99.90
8095;DHT22;4090;49.270;8.696;2022-11-04T06:48:24;12.90;99.90
8095;DHT22;4090;49.270;8.696;2022-11-04T06:51:06;12.90;99.90
8095;DHT22;4090;49.270;8.696;2022-11-04T06:53:48;12.90;99.90
8095;DHT22;4090;49.270;8.696;2022-11-04T06:56:32;12.90;99.90
8095;DHT22;4090;49.270;8.696;2022-11-04T06:59:18;12.90;99.90
8095;DHT22;4090;49.270;8.696;2022-11-04T07:02:00;12.90;99.90
8095;DHT22;4090;49.270;8.696;2022-11-04T07:04:42;12.90;99.90
8095;DHT22;4090;49.270;8.696;2022-11-04T07:07:24;12.90;99.90
8095;DHT22;4090;49.270;8.696;2022-11-04T07:10:06;12.90;99.90
8095;DHT22;4090;49.270;8.696;2022-11-04T07:12:50;12.80;99.90
8095;DHT22;4090;49.270;8.696;2022-11-04T07:15:32;12.80;99.90
8095;DHT22;4090;49.270;8.696;2022-11-04T07:18:14;12.90;99.90
8095;DHT22;4090;49.270;8.696;2022-11-04T07:20:57;12.80;99.90
8095;DHT22;4090;49.270;8.696;2022-11-04T07:23:39;12.80;99.90
8095;DHT22;4090;49.270;8.696;2022-11-04T07:26:21;12.90;99.90
8095;DHT22;4090;49.270;8.696;2022-11-04T07:29:04;13.00;99.90
8095;DHT22;4090;49.270;8.696;2022-11-04T07:31:46;13.00;99.90
8095;DHT22;4090;49.270;8.696;2022-11-04T07:34:28;12.90;99.90
8095;DHT22;4090;49.270;8.696;2022-11-04T07:37:10;12.90;99.90
8095;DHT22;4090;49.270;8.696;2022-11-04T07:39:52;12.90;99.90
8095;DHT22;4090;49.270;8.696;2022-11-04T07:42:36;12.90;99.90
8095;DHT22;4090;49.270;8.696;2022-11-04T07:45:22;12.90;99.90
8095;DHT22;4090;49.270;8.696;2022-11-04T07:48:04;12.90;99.90
8095;DHT22;4090;49.270;8.696;2022-11-04T07:50:46;12.90;99.90
8095;DHT22;4090;49.270;8.696;2022-11-04T07:53:29;13.00;99.90
8095;DHT22;4090;49.270;8.696;2022-11-04T07:56:12;13.00;99.90
8095;DHT22;4090;49.270;8.696;2022-11-04T07:58:54;13.00;99.90
8095;DHT22;4090;49.270;8.696;2022-11-04T08:01:37;13.00;99.90
8095;DHT22;4090;49.270;8.696;2022-11-04T08:04:19;13.00;99.90
8095;DHT22;4090;49.270;8.696;2022-11-04T08:07:01;13.00;99.90
8095;DHT22;4090;49.270;8.696;2022-11-04T08:09:46;13.00;99.90
8095;DHT22;4090;49.270;8.696;2022-11-04T08:12:28;12.90;99.90
8095;DHT22;4090;49.270;8.696;2022-11-04T08:15:11;13.00;99.90
8095;DHT22;4090;49.270;8.696;2022-11-04T08:17:55;13.00;99.90
8095;DHT22;4090;49.270;8.696;2022-11-04T08:20:36;13.10;99.90
8095;DHT22;4090;49.270;8.696;2022-11-04T08:23:19;13.10;99.90
8095;DHT22;4090;49.270;8.696;2022-11-04T08:26:01;13.20;99.90
8095;DHT22;4090;49.270;8.696;2022-11-04T08:28:43;13.20;99.90
8095;DHT22;4090;49.270;8.696;2022-11-04T08:31:26;13.20;99.90
8095;DHT22;4090;49.270;8.696;2022-11-04T08:34:10;13.20;99.90
8095;DHT22;4090;49.270;8.696;2022-11-04T08:36:54;13.30;99.90
8095;DHT22;4090;49.270;8.696;2022-11-04T08:39:37;13.30;99.90
8095;DHT22;4090;49.270;8.696;2022-11-04T08:42:18;13.40;99.90
8095;DHT22;4090;49.270;8.696;2022-11-04T08:45:00;13.30;99.90
8095;DHT22;4090;49.270;8.696;2022-11-04T08:47:43;13.30;99.90
8095;DHT22;4090;49.270;8.696;2022-11-04T08:50:29;13.30;99.90
8095;DHT22;4090;49.270;8.696;2022-11-04T08:53:11;13.30;99.90
8095;DHT22;4090;49.270;8.696;2022-11-04T08:55:53;13.40;99.90
8095;DHT22;4090;49.270;8.696;2022-11-04T08:58:35;13.40;99.90
8095;DHT22;4090;49.270;8.696;2022-11-04T09:01:17;13.40;99.90
8095;DHT22;4090;49.270;8.696;2022-11-04T09:04:00;13.40;99.90
8095;DHT22;4090;49.270;8.696;2022-11-04T09:06:43;13.50;99.90
8095;DHT22;4090;49.270;8.696;2022-11-04T09:09:25;13.60;99.90
8095;DHT22;4090;49.270;8.696;2022-11-04T09:12:08;13.70;99.90
8095;DHT22;4090;49.270;8.696;2022-11-04T09:14:50;13.80;99.90
8095;DHT22;4090;49.270;8.696;2022-11-04T09:17:32;14.00;99.90
8095;DHT22;4090;49.270;8.696;2022-11-04T09:20:14;14.00;99.90
8095;DHT22;4090;49.270;8.696;2022-11-04T09:22:57;13.80;99.90
8095;DHT22;4090;49.270;8.696;2022-11-04T09:25:39;14.00;99.90
8095;DHT22;4090;49.270;8.696;2022-11-04T09:28:21;14.10;99.90
8095;DHT22;4090;49.270;8.696;2022-11-04T09:31:04;14.10;99.90
8095;DHT22;4090;49.270;8.696;2022-11-04T09:33:47;14.20;99.90
8095;DHT22;4090;49.270;8.696;2022-11-04T09:36:29;14.30;99.90
8095;DHT22;4090;49.270;8.696;2022-11-04T09:39:12;14.40;99.90
8095;DHT22;4090;49.270;8.696;2022-11-04T09:42:12;14.40;99.90
8095;DHT22;4090;49.270;8.696;2022-11-04T09:44:59;14.30;99.90
8095;DHT22;4090;49.270;8.696;2022-11-04T09:47:44;14.30;99.90
8095;DHT22;4090;49.270;8.696;2022-11-04T09:50:28;14.30;99.90
8095;DHT22;4090;49.270;8.696;2022-11-04T09:53:15;14.20;99.90
8095;DHT22;4090;49.270;8.696;2022-11-04T09:56:02;14.30;99.90
8095;DHT22;4090;49.270;8.696;2022-11-04T09:58:45;14.40;99.90
8095;DHT22;4090;49.270;8.696;2022-11-04T10:01:31;14.40;99.90
8095;DHT22;4090;49.270;8.696;2022-11-04T10:04:21;14.40;99.90
8095;DHT22;4090;49.270;8.696;2022-11-04T10:07:18;14.40;99.90
8095;DHT22;4090;49.270;8.696;2022-11-04T10:10:09;14.40;99.90
8095;DHT22;4090;49.270;8.696;2022-11-04T10:13:10;14.40;99.90
8095;DHT22;4090;49.270;8.696;2022-11-04T10:16:07;14.40;99.90
8095;DHT22;4090;49.270;8.696;2022-11-04T10:19:19;14.30;99.90
8095;DHT22;4090;49.270;8.696;2022-11-04T10:22:10;14.30;99.90
8095;DHT22;4090;49.270;8.696;2022-11-04T10:25:02;14.50;99.90
8095;DHT22;4090;49.270;8.696;2022-11-04T10:27:46;14.50;99.90
8095;DHT22;4090;49.270;8.696;2022-11-04T10:30:29;14.40;99.90
8095;DHT22;4090;49.270;8.696;2022-11-04T10:33:18;14.40;99.90
8095;DHT22;4090;49.270;8.696;2022-11-04T10:36:05;14.40;99.90
8095;DHT22;4090;49.270;8.696;2022-11-04T10:38:50;14.50;99.90
8095;DHT22;4090;49.270;8.696;2022-11-04T10:41:37;14.40;99.90
8095;DHT22;4090;49.270;8.696;2022-11-04T10:44:21;14.40;99.90
8095;DHT22;4090;49.270;8.696;2022-11-04T10:47:14;14.40;99.90
8095;DHT22;4090;49.270;8.696;2022-11-04T10:50:17;14.50;99.90
8095;DHT22;4090;49.270;8.696;2022-11-04T10:53:11;14.60;99.90
8095;DHT22;4090;49.270;8.696;2022-11-04T10:55:58;14.60;99.90
8095;DHT22;4090;49.270;8.696;2022-11-04T10:58:45;14.80;99.90
8095;DHT22;4090;49.270;8.696;2022-11-04T11:01:29;14.80;99.90
8095;DHT22;4090;49.270;8.696;2022-11-04T11:04:24;14.70;99.90
8095;DHT22;4090;49.270;8.696;2022-11-04T11:07:08;14.70;99.90
8095;DHT22;4090;49.270;8.696;2022-11-04T11:09:52;14.70;99.90
8095;DHT22;4090;49.270;8.696;2022-11-04T11:12:36;14.80;99.90
8095;DHT22;4090;49.270;8.696;2022-11-04T11:15:32;14.80;99.90
8095;DHT22;4090;49.270;8.696;2022-11-04T11:18:16;14.80;99.90
8095;DHT22;4090;49.270;8.696;2022-11-04T11:21:08;14.90;99.90
8095;DHT22;4090;49.270;8.696;2022-11-04T11:23:50;14.90;99.90
8095;DHT22;4090;49.270;8.696;2022-11-04T11:26:35;14.80;99.90
8095;DHT22;4090;49.270;8.696;2022-11-04T11:29:21;14.90;99.90
8095;DHT22;4090;49.270;8.696;2022-11-04T11:32:04;14.90;99.90
8095;DHT22;4090;49.270;8.696;2022-11-04T11:34:47;14.90;99.90
8095;DHT22;4090;49.270;8.696;2022-11-04T11:37:30;15.00;99.90
8095;DHT22;4090;49.270;8.696;2022-11-04T11:40:23;15.00;99.90
8095;DHT22;4090;49.270;8.696;2022-11-04T11:43:05;15.00;99.90
8095;DHT22;4090;49.270;8.696;2022-11-04T11:45:48;15.00;99.90
8095;DHT22;4090;49.270;8.696;2022-11-04T11:48:34;14.90;99.90
8095;DHT22;4090;49.270;8.696;2022-11-04T11:51:23;14.90;99.90
8095;DHT22;4090;49.270;8.696;2022-11-04T11:54:28;14.90;99.90
8095;DHT22;4090;49.270;8.696;2022-11-04T11:57:26;14.90;99.90
8095;DHT22;4090;49.270;8.696;2022-11-04T12:00:12;14.90;99.90
8095;DHT22;4090;49.270;8.696;2022-11-04T12:02:59;15.00;99.90
8095;DHT22;4090;49.270;8.696;2022-11-04T12:05:47;15.00;99.90
8095;DHT22;4090;49.270;8.696;2022-11-04T12:08:55;15.00;99.90
8095;DHT22;4090;49.270;8.696;2022-11-04T12:11:48;15.00;99.90
8095;DHT22;4090;49.270;8.696;2022-11-04T12:14:43;15.10;99.90
8095;DHT22;4090;49.270;8.696;2022-11-04T12:17:39;15.20;99.90
8095;DHT22;4090;49.270;8.696;2022-11-04T12:20:33;15.20;99.90
8095;DHT22;4090;49.270;8.696;2022-11-04T12:23:25;15.20;99.90
8095;DHT22;4090;49.270;8.696;2022-11-04T12:26:15;15.20;99.90
8095;DHT22;4090;49.270;8.696;2022-11-04T12:29:17;15.20;99.90
8095;DHT22;4090;49.270;8.696;2022-11-04T12:32:09;15.20;99.90
8095;DHT22;4090;49.270;8.696;2022-11-04T12:35:05;15.20;99.90
8095;DHT22;4090;49.270;8.696;2022-11-04T12:38:01;15.20;99.90
8095;DHT22;4090;49.270;8.696;2022-11-04T12:40:50;15.20;99.90
8095;DHT22;4090;49.270;8.696;2022-11-04T12:43:39;15.20;99.90
8095;DHT22;4090;49.270;8.696;2022-11-04T12:46:35;15.20;99.90
8095;DHT22;4090;49.270;8.696;2022-11-04T12:55:43;15.20;99.90
8095;DHT22;4090;49.270;8.696;2022-11-04T12:58:39;15.20;99.90
8095;DHT22;4090;49.270;8.696;2022-11-04T13:01:30;15.20;99.90
8095;DHT22;4090;49.270;8.696;2022-11-04T13:04:16;15.20;99.90
8095;DHT22;4090;49.270;8.696;2022-11-04T13:07:02;15.30;99.90
8095;DHT22;4090;49.270;8.696;2022-11-04T13:09:50;15.40;99.90
8095;DHT22;4090;49.270;8.696;2022-11-04T13:12:37;15.40;99.90
8095;DHT22;4090;49.270;8.696;2022-11-04T13:15:21;15.40;99.90
8095;DHT22;4090;49.270;8.696;2022-11-04T13:18:06;15.50;99.90
8095;DHT22;4090;49.270;8.696;2022-11-04T13:20:53;15.50;99.90
8095;DHT22;4090;49.270;8.696;2022-11-04T13:23:39;15.60;99.90
8095;DHT22;4090;49.270;8.696;2022-11-04T13:26:22;15.50;99.90
8095;DHT22;4090;49.270;8.696;2022-11-04T13:29:09;15.60;99.90
8095;DHT22;4090;49.270;8.696;2022-11-04T13:31:57;15.60;99.90
8095;DHT22;4090;49.270;8.696;2022-11-04T13:34:46;15.60;99.90
8095;DHT22;4090;49.270;8.696;2022-11-04T13:37:34;15.60;99.90
8095;DHT22;4090;49.270;8.696;2022-11-04T13:40:21;15.60;99.90
8095;DHT22;4090;49.270;8.696;2022-11-04T13:43:15;15.70;99.90
8095;DHT22;4090;49.270;8.696;2022-11-04T13:46:20;15.60;99.90
8095;DHT22;4090;49.270;8.696;2022-11-04T13:49:19;15.70;99.90
8095;DHT22;4090;49.270;8.696;2022-11-04T13:52:07;15.60;99.90
8095;DHT22;4090;49.270;8.696;2022-11-04T13:54:55;15.70;99.90
8095;DHT22;4090;49.270;8.696;2022-11-04T13:57:49;15.70;99.90
8095;DHT22;4090;49.270;8.696;2022-11-04T14:00:33;15.70;99.90
8095;DHT22;4090;49.270;8.696;2022-11-04T14:03:38;15.70;99.90
8095;DHT22;4090;49.270;8.696;2022-11-04T14:06:46;15.80;99.90
8095;DHT22;4090;49.270;8.696;2022-11-04T14:09:59;15.80;99.90
8095;DHT22;4090;49.270;8.696;2022-11-04T14:12:43;15.70;99.90
8095;DHT22;4090;49.270;8.696;2022-11-04T14:15:59;15.70;99.90
8095;DHT22;4090;49.270;8.696;2022-11-04T14:18:41;15.70;99.90
8095;DHT22;4090;49.270;8.696;2022-11-04T14:21:25;15.70;99.90
8095;DHT22;4090;49.270;8.696;2022-11-04T14:24:12;15.70;99.90
8095;DHT22;4090;49.270;8.696;2022-11-04T14:26:55;15.70;99.90
8095;DHT22;4090;49.270;8.696;2022-11-04T14:29:37;15.70;99.90
8095;DHT22;4090;49.270;8.696;2022-11-04T14:32:24;15.80;99.90
8095;DHT22;4090;49.270;8.696;2022-11-04T14:35:16;15.80;99.90
8095;DHT22;4090;49.270;8.696;2022-11-04T14:38:04;15.80;99.90
8095;DHT22;4090;49.270;8.696;2022-11-04T14:40:50;15.70;99.90
8095;DHT22;4090;49.270;8.696;2022-11-04T14:43:34;15.70;99.90
8095;DHT22;4090;49.270;8.696;2022-11-04T14:46:21;15.70;99.90
8095;DHT22;4090;49.270;8.696;2022-11-04T14:49:04;15.70;99.90
8095;DHT22;4090;49.270;8.696;2022-11-04T14:51:46;15.70;99.90
8095;DHT22;4090;49.270;8.696;2022-11-04T14:54:33;15.70;99.90
8095;DHT22;4090;49.270;8.696;2022-11-04T14:57:17;15.70;99.90
8095;DHT22;4090;49.270;8.696;2022-11-04T15:00:17;15.70;99.90
8095;DHT22;4090;49.270;8.696;2022-11-04T15:03:12;15.70;99.90
8095;DHT22;4090;49.270;8.696;2022-11-04T15:05:58;15.60;99.90
8095;DHT22;4090;49.270;8.696;2022-11-04T15:08:43;15.60;99.90
8095;DHT22;4090;49.270;8.696;2022-11-04T15:11:27;15.60;99.90
8095;DHT22;4090;49.270;8.696;2022-11-04T15:14:27;15.60;99.90
8095;DHT22;4090;49.270;8.696;2022-11-04T15:17:16;15.60;99.90
8095;DHT22;4090;49.270;8.696;2022-11-04T15:20:00;15.60;99.90
8095;DHT22;4090;49.270;8.696;2022-11-04T15:22:44;15.60;99.90
8095;DHT22;4090;49.270;8.696;2022-11-04T15:25:26;15.60;99.90
8095;DHT22;4090;49.270;8.696;2022-11-04T15:28:16;15.60;99.90
8095;DHT22;4090;49.270;8.696;2022-11-04T15:31:02;15.50;99.90
8095;DHT22;4090;49.270;8.696;2022-11-04T15:33:48;15.50;99.90
8095;DHT22;4090;49.270;8.696;2022-11-04T15:36:34;15.50;99.90
8095;DHT22;4090;49.270;8.696;2022-11-04T15:39:19;15.40;99.90
8095;DHT22;4090;49.270;8.696;2022-11-04T15:42:03;15.40;99.90
8095;DHT22;4090;49.270;8.696;2022-11-04T15:45:28;15.40;99.90
8095;DHT22;4090;49.270;8.696;2022-11-04T15:48:28;15.40;99.90
8095;DHT22;4090;49.270;8.696;2022-11-04T15:51:18;15.40;99.90
8095;DHT22;4090;49.270;8.696;2022-11-04T15:54:04;15.40;99.90
8095;DHT22;4090;49.270;8.696;2022-11-04T15:56:49;15.30;99.90
8095;DHT22;4090;49.270;8.696;2022-11-04T15:59:36;15.30;99.90
8095;DHT22;4090;49.270;8.696;2022-11-04T16:02:28;15.20;99.90
8095;DHT22;4090;49.270;8.696;2022-11-04T16:05:20;15.20;99.90
8095;DHT22;4090;49.270;8.696;2022-11-04T16:08:19;15.20;99.90
8095;DHT22;4090;49.270;8.696;2022-11-04T16:11:09;15.20;99.90
8095;DHT22;4090;49.270;8.696;2022-11-04T16:13:51;15.10;99.90
8095;DHT22;4090;49.270;8.696;2022-11-04T16:16:33;15.20;99.90
8095;DHT22;4090;49.270;8.696;2022-11-04T16:19:17;15.10;99.90
8095;DHT22;4090;49.270;8.696;2022-11-04T16:22:03;15.10;99.90
8095;DHT22;4090;49.270;8.696;2022-11-04T16:24:47;15.10;99.90
8095;DHT22;4090;49.270;8.696;2022-11-04T16:27:33;15.00;99.90
8095;DHT22;4090;49.270;8.696;2022-11-04T16:30:17;15.00;99.90
8095;DHT22;4090;49.270;8.696;2022-11-04T16:33:08;15.00;99.90
8095;DHT22;4090;49.270;8.696;2022-11-04T16:35:51;14.80;99.90
8095;DHT22;4090;49.270;8.696;2022-11-04T16:38:33;14.80;99.90
8095;DHT22;4090;49.270;8.696;2022-11-04T16:41:16;14.70;99.90
8095;DHT22;4090;49.270;8.696;2022-11-04T16:43:58;14.50;99.90
8095;DHT22;4090;49.270;8.696;2022-11-04T16:46:40;14.40;99.90
8095;DHT22;4090;49.270;8.696;2022-11-04T16:49:22;14.30;99.90
8095;DHT22;4090;49.270;8.696;2022-11-04T16:52:10;14.30;99.90
8095;DHT22;4090;49.270;8.696;2022-11-04T16:54:54;14.30;99.90
8095;DHT22;4090;49.270;8.696;2022-11-04T16:57:38;14.30;99.90
8095;DHT22;4090;49.270;8.696;2022-11-04T17:00:22;14.20;99.90
8095;DHT22;4090;49.270;8.696;2022-11-04T17:03:12;14.10;99.90
8095;DHT22;4090;49.270;8.696;2022-11-04T17:06:02;14.00;99.90
8095;DHT22;4090;49.270;8.696;2022-11-04T17:08:44;14.00;99.90
8095;DHT22;4090;49.270;8.696;2022-11-04T17:11:26;13.90;99.90
8095;DHT22;4090;49.270;8.696;2022-11-04T17:14:11;13.90;99.90
8095;DHT22;4090;49.270;8.696;2022-11-04T17:16:52;13.90;99.90
8095;DHT22;4090;49.270;8.696;2022-11-04T17:19:34;14.00;99.90
8095;DHT22;4090;49.270;8.696;2022-11-04T17:22:16;14.00;99.90
8095;DHT22;4090;49.270;8.696;2022-11-04T17:24:58;14.00;99.90
8095;DHT22;4090;49.270;8.696;2022-11-04T17:27:40;14.00;99.90
8095;DHT22;4090;49.270;8.696;2022-11-04T17:30:23;14.00;99.90
8095;DHT22;4090;49.270;8.696;2022-11-04T17:33:08;14.00;99.90
8095;DHT22;4090;49.270;8.696;2022-11-04T17:35:50;14.00;99.90
8095;DHT22;4090;49.270;8.696;2022-11-04T17:38:32;13.90;99.90
8095;DHT22;4090;49.270;8.696;2022-11-04T17:41:14;14.00;99.90
8095;DHT22;4090;49.270;8.696;2022-11-04T17:44:13;14.00;99.90
8095;DHT22;4090;49.270;8.696;2022-11-04T17:46:57;13.90;99.90
8095;DHT22;4090;49.270;8.696;2022-11-04T17:49:40;13.90;99.90
8095;DHT22;4090;49.270;8.696;2022-11-04T17:52:22;13.90;99.90
8095;DHT22;4090;49.270;8.696;2022-11-04T17:55:04;14.00;99.90
8095;DHT22;4090;49.270;8.696;2022-11-04T17:57:46;13.90;99.90
8095;DHT22;4090;49.270;8.696;2022-11-04T18:00:28;13.90;99.90
8095;DHT22;4090;49.270;8.696;2022-11-04T18:03:11;13.90;99.90
8095;DHT22;4090;49.270;8.696;2022-11-04T18:05:57;13.90;99.90
8095;DHT22;4090;49.270;8.696;2022-11-04T18:08:39;13.90;99.90
8095;DHT22;4090;49.270;8.696;2022-11-04T18:11:22;13.90;99.90
8095;DHT22;4090;49.270;8.696;2022-11-04T18:14:22;13.80;99.90
8095;DHT22;4090;49.270;8.696;2022-11-04T18:17:04;13.90;99.90